logo
Search for airport 
image banner adimage banner adimage banner ad
image banner ad

VT64 - Mountain View Farm

Located in Morristown, United States

ICAO - VT64, IATA -

Data provided by Airmate  

General information

Coordinates: N44°30'55" W72°38'28"
Elevation is 1200 feet MSL.
Magnetic variation is -16° East
View others Airports in Vermont

Operational data

Special qualification required
Current time UTC:
Current local time:
Weather at : KMVL - Morrisville-Stowe State ( 3 km )
METAR: KMVL 131654Z AUTO 24008G20KT 6SM -RA BKN034 BKN046 OVC070 08/02 A2940 RMK AO2 RAB47 SLP960 P0001 T00780022
View NOTAMs / SUP AIP / TFR affecting this airport [VIEW]
Communications frequencies: [VIEW]

Runways:

RWY identifierQFULength (ft)Width (ft)SurfaceLDA (ft)
02150060GRASS
20150060GRASS

Airport contact information

Address: Morristown United States

Satellite view of VT64